sensor_id;sensor_type;location;lat;lon;timestamp;P1;durP1;ratioP1;P2;durP2;ratioP2
34405;SDS011;20658;45.630;8.886;2023-12-28T00:00:32;44.92;;;30.23;;
34405;SDS011;20658;45.630;8.886;2023-12-28T00:03:05;50.13;;;30.67;;
34405;SDS011;20658;45.630;8.886;2023-12-28T00:05:38;42.85;;;29.38;;
34405;SDS011;20658;45.630;8.886;2023-12-28T00:08:12;40.63;;;28.45;;
34405;SDS011;20658;45.630;8.886;2023-12-28T00:10:40;41.60;;;26.35;;
34405;SDS011;20658;45.630;8.886;2023-12-28T00:13:10;43.10;;;25.90;;
34405;SDS011;20658;45.630;8.886;2023-12-28T00:15:44;41.58;;;26.15;;
34405;SDS011;20658;45.630;8.886;2023-12-28T00:18:17;37.25;;;24.05;;
34405;SDS011;20658;45.630;8.886;2023-12-28T00:20:51;40.35;;;24.60;;
34405;SDS011;20658;45.630;8.886;2023-12-28T00:23:25;40.35;;;22.35;;
34405;SDS011;20658;45.630;8.886;2023-12-28T00:25:53;29.60;;;19.60;;
34405;SDS011;20658;45.630;8.886;2023-12-28T00:28:28;36.50;;;21.70;;
34405;SDS011;20658;45.630;8.886;2023-12-28T00:31:02;35.13;;;20.15;;
34405;SDS011;20658;45.630;8.886;2023-12-28T00:33:35;34.78;;;19.52;;
34405;SDS011;20658;45.630;8.886;2023-12-28T00:36:04;32.70;;;19.23;;
34405;SDS011;20658;45.630;8.886;2023-12-28T00:38:38;32.20;;;19.30;;
34405;SDS011;20658;45.630;8.886;2023-12-28T00:41:11;38.05;;;20.48;;
34405;SDS011;20658;45.630;8.886;2023-12-28T00:43:46;34.28;;;20.20;;
34405;SDS011;20658;45.630;8.886;2023-12-28T00:46:20;29.13;;;18.98;;
34405;SDS011;20658;45.630;8.886;2023-12-28T00:48:54;29.17;;;17.35;;
34405;SDS011;20658;45.630;8.886;2023-12-28T00:51:27;27.75;;;16.85;;
34405;SDS011;20658;45.630;8.886;2023-12-28T00:54:00;30.23;;;18.67;;
34405;SDS011;20658;45.630;8.886;2023-12-28T00:56:34;35.85;;;19.60;;
34405;SDS011;20658;45.630;8.886;2023-12-28T00:59:04;30.33;;;16.70;;
34405;SDS011;20658;45.630;8.886;2023-12-28T01:01:38;30.45;;;18.50;;
34405;SDS011;20658;45.630;8.886;2023-12-28T01:04:11;31.60;;;18.60;;
34405;SDS011;20658;45.630;8.886;2023-12-28T01:06:45;31.13;;;18.13;;
34405;SDS011;20658;45.630;8.886;2023-12-28T01:09:18;30.83;;;17.75;;
34405;SDS011;20658;45.630;8.886;2023-12-28T01:11:52;34.78;;;18.55;;
34405;SDS011;20658;45.630;8.886;2023-12-28T01:14:26;31.48;;;17.50;;
34405;SDS011;20658;45.630;8.886;2023-12-28T01:17:01;26.00;;;17.27;;
34405;SDS011;20658;45.630;8.886;2023-12-28T01:19:35;26.30;;;16.20;;
34405;SDS011;20658;45.630;8.886;2023-12-28T01:22:10;31.83;;;17.40;;
34405;SDS011;20658;45.630;8.886;2023-12-28T01:24:45;34.33;;;17.98;;
34405;SDS011;20658;45.630;8.886;2023-12-28T01:27:20;29.63;;;17.92;;
34405;SDS011;20658;45.630;8.886;2023-12-28T01:29:50;28.42;;;18.17;;
34405;SDS011;20658;45.630;8.886;2023-12-28T01:32:24;28.20;;;18.08;;
34405;SDS011;20658;45.630;8.886;2023-12-28T01:34:57;31.30;;;18.75;;
34405;SDS011;20658;45.630;8.886;2023-12-28T01:37:26;26.10;;;15.52;;
34405;SDS011;20658;45.630;8.886;2023-12-28T01:40:02;28.48;;;15.15;;
34405;SDS011;20658;45.630;8.886;2023-12-28T01:42:33;28.33;;;17.17;;
34405;SDS011;20658;45.630;8.886;2023-12-28T01:45:03;28.02;;;15.07;;
34405;SDS011;20658;45.630;8.886;2023-12-28T01:47:33;26.83;;;16.33;;
34405;SDS011;20658;45.630;8.886;2023-12-28T01:50:02;28.85;;;17.45;;
34405;SDS011;20658;45.630;8.886;2023-12-28T01:52:33;30.00;;;16.17;;
34405;SDS011;20658;45.630;8.886;2023-12-28T01:55:02;26.60;;;16.23;;
34405;SDS011;20658;45.630;8.886;2023-12-28T01:57:38;25.90;;;15.13;;
34405;SDS011;20658;45.630;8.886;2023-12-28T02:00:09;27.13;;;16.10;;
34405;SDS011;20658;45.630;8.886;2023-12-28T02:02:44;26.10;;;15.90;;
34405;SDS011;20658;45.630;8.886;2023-12-28T02:05:19;29.42;;;15.23;;
34405;SDS011;20658;45.630;8.886;2023-12-28T02:07:48;27.08;;;13.80;;
34405;SDS011;20658;45.630;8.886;2023-12-28T02:10:23;24.40;;;14.45;;
34405;SDS011;20658;45.630;8.886;2023-12-28T02:12:57;26.08;;;15.15;;
34405;SDS011;20658;45.630;8.886;2023-12-28T02:15:32;25.10;;;13.95;;
34405;SDS011;20658;45.630;8.886;2023-12-28T02:18:08;30.98;;;15.48;;
34405;SDS011;20658;45.630;8.886;2023-12-28T02:20:44;25.98;;;14.73;;
34405;SDS011;20658;45.630;8.886;2023-12-28T02:23:19;24.40;;;13.82;;
34405;SDS011;20658;45.630;8.886;2023-12-28T02:25:54;24.98;;;13.88;;
34405;SDS011;20658;45.630;8.886;2023-12-28T02:28:28;25.70;;;13.75;;
34405;SDS011;20658;45.630;8.886;2023-12-28T02:31:01;24.25;;;13.15;;
34405;SDS011;20658;45.630;8.886;2023-12-28T02:33:42;23.58;;;14.13;;
34405;SDS011;20658;45.630;8.886;2023-12-28T02:36:22;24.95;;;13.10;;
34405;SDS011;20658;45.630;8.886;2023-12-28T02:38:56;24.10;;;12.95;;
34405;SDS011;20658;45.630;8.886;2023-12-28T02:41:36;25.50;;;12.88;;
34405;SDS011;20658;45.630;8.886;2023-12-28T02:44:09;22.83;;;12.30;;
34405;SDS011;20658;45.630;8.886;2023-12-28T02:46:43;22.80;;;11.82;;
34405;SDS011;20658;45.630;8.886;2023-12-28T02:49:16;24.98;;;13.52;;
34405;SDS011;20658;45.630;8.886;2023-12-28T02:51:49;24.13;;;13.00;;
34405;SDS011;20658;45.630;8.886;2023-12-28T02:54:23;25.65;;;12.30;;
34405;SDS011;20658;45.630;8.886;2023-12-28T02:56:58;25.58;;;13.10;;
34405;SDS011;20658;45.630;8.886;2023-12-28T02:59:31;26.92;;;14.50;;
34405;SDS011;20658;45.630;8.886;2023-12-28T03:02:05;26.20;;;13.10;;
34405;SDS011;20658;45.630;8.886;2023-12-28T03:04:38;24.60;;;12.15;;
34405;SDS011;20658;45.630;8.886;2023-12-28T03:07:12;28.50;;;14.55;;
34405;SDS011;20658;45.630;8.886;2023-12-28T03:09:45;22.90;;;12.57;;
34405;SDS011;20658;45.630;8.886;2023-12-28T03:12:20;22.65;;;13.45;;
34405;SDS011;20658;45.630;8.886;2023-12-28T03:14:53;23.58;;;12.82;;
34405;SDS011;20658;45.630;8.886;2023-12-28T03:17:27;21.38;;;12.30;;
34405;SDS011;20658;45.630;8.886;2023-12-28T03:20:02;22.50;;;11.77;;
34405;SDS011;20658;45.630;8.886;2023-12-28T03:22:36;24.20;;;12.18;;
34405;SDS011;20658;45.630;8.886;2023-12-28T03:25:11;22.83;;;11.48;;
34405;SDS011;20658;45.630;8.886;2023-12-28T03:27:46;20.40;;;11.30;;
34405;SDS011;20658;45.630;8.886;2023-12-28T03:30:19;24.35;;;11.88;;
34405;SDS011;20658;45.630;8.886;2023-12-28T03:32:53;21.92;;;11.70;;
34405;SDS011;20658;45.630;8.886;2023-12-28T03:35:26;22.45;;;12.13;;
34405;SDS011;20658;45.630;8.886;2023-12-28T03:38:00;22.48;;;12.85;;
34405;SDS011;20658;45.630;8.886;2023-12-28T03:40:33;26.30;;;13.93;;
34405;SDS011;20658;45.630;8.886;2023-12-28T03:43:08;20.25;;;11.18;;
34405;SDS011;20658;45.630;8.886;2023-12-28T03:45:41;22.00;;;11.32;;
34405;SDS011;20658;45.630;8.886;2023-12-28T03:48:15;20.90;;;10.65;;
34405;SDS011;20658;45.630;8.886;2023-12-28T03:50:48;25.13;;;12.07;;
34405;SDS011;20658;45.630;8.886;2023-12-28T03:53:22;20.52;;;10.63;;
34405;SDS011;20658;45.630;8.886;2023-12-28T03:55:55;19.20;;;9.90;;
34405;SDS011;20658;45.630;8.886;2023-12-28T03:58:30;24.08;;;9.68;;
34405;SDS011;20658;45.630;8.886;2023-12-28T04:01:04;18.10;;;9.45;;
34405;SDS011;20658;45.630;8.886;2023-12-28T04:03:37;17.13;;;10.45;;
34405;SDS011;20658;45.630;8.886;2023-12-28T04:06:06;23.88;;;10.80;;
34405;SDS011;20658;45.630;8.886;2023-12-28T04:08:40;18.90;;;9.85;;
34405;SDS011;20658;45.630;8.886;2023-12-28T04:11:14;19.75;;;9.68;;
34405;SDS011;20658;45.630;8.886;2023-12-28T04:13:49;16.95;;;9.57;;
34405;SDS011;20658;45.630;8.886;2023-12-28T04:16:22;21.85;;;9.40;;
34405;SDS011;20658;45.630;8.886;2023-12-28T04:18:56;17.38;;;9.20;;
34405;SDS011;20658;45.630;8.886;2023-12-28T04:21:30;19.40;;;8.75;;
34405;SDS011;20658;45.630;8.886;2023-12-28T04:23:58;17.23;;;8.57;;
34405;SDS011;20658;45.630;8.886;2023-12-28T04:26:31;19.55;;;8.82;;
34405;SDS011;20658;45.630;8.886;2023-12-28T04:29:02;17.58;;;7.80;;
34405;SDS011;20658;45.630;8.886;2023-12-28T04:31:39;16.63;;;8.63;;
34405;SDS011;20658;45.630;8.886;2023-12-28T04:34:13;16.48;;;8.35;;
34405;SDS011;20658;45.630;8.886;2023-12-28T04:36:47;15.45;;;7.57;;
34405;SDS011;20658;45.630;8.886;2023-12-28T04:39:20;14.98;;;7.38;;
34405;SDS011;20658;45.630;8.886;2023-12-28T04:41:54;15.23;;;7.70;;
34405;SDS011;20658;45.630;8.886;2023-12-28T04:44:29;14.90;;;7.65;;
34405;SDS011;20658;45.630;8.886;2023-12-28T04:47:02;14.80;;;7.10;;
34405;SDS011;20658;45.630;8.886;2023-12-28T04:49:36;20.63;;;8.05;;
34405;SDS011;20658;45.630;8.886;2023-12-28T04:52:09;17.95;;;8.02;;
34405;SDS011;20658;45.630;8.886;2023-12-28T04:54:43;16.88;;;8.07;;
34405;SDS011;20658;45.630;8.886;2023-12-28T04:57:16;13.80;;;7.57;;
34405;SDS011;20658;45.630;8.886;2023-12-28T04:59:51;17.63;;;8.18;;
34405;SDS011;20658;45.630;8.886;2023-12-28T05:02:24;20.50;;;8.43;;
34405;SDS011;20658;45.630;8.886;2023-12-28T05:05:00;16.25;;;8.05;;
34405;SDS011;20658;45.630;8.886;2023-12-28T05:07:33;17.38;;;8.32;;
34405;SDS011;20658;45.630;8.886;2023-12-28T05:10:02;16.55;;;7.88;;
34405;SDS011;20658;45.630;8.886;2023-12-28T05:12:36;17.05;;;8.95;;
34405;SDS011;20658;45.630;8.886;2023-12-28T05:15:11;20.13;;;8.65;;
34405;SDS011;20658;45.630;8.886;2023-12-28T05:17:44;16.02;;;8.63;;
34405;SDS011;20658;45.630;8.886;2023-12-28T05:20:18;14.95;;;8.50;;
34405;SDS011;20658;45.630;8.886;2023-12-28T05:22:51;14.05;;;7.65;;
34405;SDS011;20658;45.630;8.886;2023-12-28T05:25:25;17.27;;;8.57;;
34405;SDS011;20658;45.630;8.886;2023-12-28T05:27:58;15.40;;;8.88;;
34405;SDS011;20658;45.630;8.886;2023-12-28T05:30:33;17.17;;;8.65;;
34405;SDS011;20658;45.630;8.886;2023-12-28T05:33:06;18.75;;;9.02;;
34405;SDS011;20658;45.630;8.886;2023-12-28T05:35:39;17.73;;;7.57;;
34405;SDS011;20658;45.630;8.886;2023-12-28T05:38:13;17.38;;;7.65;;
34405;SDS011;20658;45.630;8.886;2023-12-28T05:40:46;14.95;;;7.90;;
34405;SDS011;20658;45.630;8.886;2023-12-28T05:43:20;15.55;;;8.52;;
34405;SDS011;20658;45.630;8.886;2023-12-28T05:45:55;15.45;;;7.60;;
34405;SDS011;20658;45.630;8.886;2023-12-28T05:48:28;13.85;;;7.80;;
34405;SDS011;20658;45.630;8.886;2023-12-28T05:51:02;15.30;;;7.30;;
34405;SDS011;20658;45.630;8.886;2023-12-28T05:53:36;14.20;;;8.15;;
34405;SDS011;20658;45.630;8.886;2023-12-28T05:56:09;17.52;;;8.93;;
34405;SDS011;20658;45.630;8.886;2023-12-28T05:58:42;15.60;;;7.70;;
34405;SDS011;20658;45.630;8.886;2023-12-28T06:01:17;17.15;;;7.57;;
34405;SDS011;20658;45.630;8.886;2023-12-28T06:03:51;16.45;;;7.88;;
34405;SDS011;20658;45.630;8.886;2023-12-28T06:06:24;19.88;;;8.50;;
34405;SDS011;20658;45.630;8.886;2023-12-28T06:08:58;16.63;;;7.65;;
34405;SDS011;20658;45.630;8.886;2023-12-28T06:11:26;17.83;;;7.30;;
34405;SDS011;20658;45.630;8.886;2023-12-28T06:13:59;12.60;;;6.82;;
34405;SDS011;20658;45.630;8.886;2023-12-28T06:16:29;13.65;;;6.97;;
34405;SDS011;20658;45.630;8.886;2023-12-28T06:18:59;14.60;;;7.03;;
34405;SDS011;20658;45.630;8.886;2023-12-28T06:21:28;12.50;;;6.82;;
34405;SDS011;20658;45.630;8.886;2023-12-28T06:23:57;21.00;;;12.98;;
34405;SDS011;20658;45.630;8.886;2023-12-28T06:26:31;21.92;;;10.48;;
34405;SDS011;20658;45.630;8.886;2023-12-28T06:29:04;18.45;;;8.82;;
34405;SDS011;20658;45.630;8.886;2023-12-28T06:31:39;20.30;;;8.25;;
34405;SDS011;20658;45.630;8.886;2023-12-28T06:34:08;16.90;;;7.32;;
34405;SDS011;20658;45.630;8.886;2023-12-28T06:36:41;15.93;;;7.35;;
34405;SDS011;20658;45.630;8.886;2023-12-28T06:39:15;15.38;;;7.32;;
34405;SDS011;20658;45.630;8.886;2023-12-28T06:41:48;16.75;;;7.03;;
34405;SDS011;20658;45.630;8.886;2023-12-28T06:44:17;15.75;;;6.82;;
34405;SDS011;20658;45.630;8.886;2023-12-28T06:46:47;17.83;;;9.35;;
34405;SDS011;20658;45.630;8.886;2023-12-28T06:49:15;21.48;;;9.73;;
34405;SDS011;20658;45.630;8.886;2023-12-28T06:51:49;16.98;;;9.55;;
34405;SDS011;20658;45.630;8.886;2023-12-28T06:54:17;17.70;;;9.55;;
34405;SDS011;20658;45.630;8.886;2023-12-28T06:56:51;19.02;;;9.73;;
34405;SDS011;20658;45.630;8.886;2023-12-28T06:59:19;18.17;;;11.35;;
34405;SDS011;20658;45.630;8.886;2023-12-28T07:01:54;23.45;;;13.82;;
34405;SDS011;20658;45.630;8.886;2023-12-28T07:04:27;20.05;;;9.27;;
34405;SDS011;20658;45.630;8.886;2023-12-28T07:07:01;26.25;;;9.30;;
34405;SDS011;20658;45.630;8.886;2023-12-28T07:09:34;20.02;;;7.60;;
34405;SDS011;20658;45.630;8.886;2023-12-28T07:12:08;15.70;;;7.03;;
34405;SDS011;20658;45.630;8.886;2023-12-28T07:14:42;13.00;;;6.35;;
34405;SDS011;20658;45.630;8.886;2023-12-28T07:17:17;16.50;;;7.35;;
34405;SDS011;20658;45.630;8.886;2023-12-28T07:19:50;15.85;;;6.80;;
34405;SDS011;20658;45.630;8.886;2023-12-28T07:22:24;17.38;;;7.47;;
34405;SDS011;20658;45.630;8.886;2023-12-28T07:24:52;18.77;;;8.75;;
34405;SDS011;20658;45.630;8.886;2023-12-28T07:27:25;14.82;;;7.07;;
34405;SDS011;20658;45.630;8.886;2023-12-28T07:29:59;14.00;;;7.18;;
34405;SDS011;20658;45.630;8.886;2023-12-28T07:32:34;16.73;;;7.88;;
34405;SDS011;20658;45.630;8.886;2023-12-28T07:35:03;17.85;;;7.95;;
34405;SDS011;20658;45.630;8.886;2023-12-28T07:37:32;18.13;;;7.38;;
34405;SDS011;20658;45.630;8.886;2023-12-28T07:40:06;17.73;;;7.50;;
34405;SDS011;20658;45.630;8.886;2023-12-28T07:42:40;18.58;;;8.13;;
34405;SDS011;20658;45.630;8.886;2023-12-28T07:45:14;23.58;;;9.63;;
34405;SDS011;20658;45.630;8.886;2023-12-28T07:47:50;23.60;;;9.27;;
34405;SDS011;20658;45.630;8.886;2023-12-28T07:50:23;21.30;;;8.45;;
34405;SDS011;20658;45.630;8.886;2023-12-28T07:52:57;17.73;;;7.82;;
34405;SDS011;20658;45.630;8.886;2023-12-28T07:55:31;19.55;;;8.63;;
34405;SDS011;20658;45.630;8.886;2023-12-28T07:58:05;17.25;;;8.75;;
34405;SDS011;20658;45.630;8.886;2023-12-28T08:00:38;18.63;;;8.88;;
34405;SDS011;20658;45.630;8.886;2023-12-28T08:03:13;21.17;;;9.48;;
34405;SDS011;20658;45.630;8.886;2023-12-28T08:05:42;20.23;;;9.43;;
34405;SDS011;20658;45.630;8.886;2023-12-28T08:08:11;28.70;;;10.18;;
34405;SDS011;20658;45.630;8.886;2023-12-28T08:10:45;26.95;;;9.75;;
34405;SDS011;20658;45.630;8.886;2023-12-28T08:13:13;23.20;;;10.10;;
34405;SDS011;20658;45.630;8.886;2023-12-28T08:15:47;20.85;;;8.63;;
34405;SDS011;20658;45.630;8.886;2023-12-28T08:18:21;18.50;;;8.85;;
34405;SDS011;20658;45.630;8.886;2023-12-28T08:20:55;18.50;;;9.38;;
34405;SDS011;20658;45.630;8.886;2023-12-28T08:23:28;22.63;;;10.23;;
34405;SDS011;20658;45.630;8.886;2023-12-28T08:26:02;19.73;;;9.60;;
34405;SDS011;20658;45.630;8.886;2023-12-28T08:28:31;22.38;;;9.55;;
34405;SDS011;20658;45.630;8.886;2023-12-28T08:31:05;23.98;;;11.77;;
34405;SDS011;20658;45.630;8.886;2023-12-28T08:33:36;20.98;;;9.35;;
34405;SDS011;20658;45.630;8.886;2023-12-28T08:36:10;22.90;;;9.80;;
34405;SDS011;20658;45.630;8.886;2023-12-28T08:38:44;20.73;;;9.50;;
34405;SDS011;20658;45.630;8.886;2023-12-28T08:41:18;25.02;;;9.20;;
34405;SDS011;20658;45.630;8.886;2023-12-28T08:43:52;18.73;;;9.25;;
34405;SDS011;20658;45.630;8.886;2023-12-28T08:46:26;20.23;;;10.00;;
34405;SDS011;20658;45.630;8.886;2023-12-28T08:48:56;26.55;;;11.05;;
34405;SDS011;20658;45.630;8.886;2023-12-28T08:51:30;26.88;;;11.63;;
34405;SDS011;20658;45.630;8.886;2023-12-28T08:54:03;24.23;;;11.00;;
34405;SDS011;20658;45.630;8.886;2023-12-28T08:56:32;18.15;;;8.52;;
34405;SDS011;20658;45.630;8.886;2023-12-28T08:59:01;17.35;;;9.05;;
34405;SDS011;20658;45.630;8.886;2023-12-28T09:01:30;19.40;;;9.10;;
34405;SDS011;20658;45.630;8.886;2023-12-28T09:04:05;26.55;;;11.15;;
34405;SDS011;20658;45.630;8.886;2023-12-28T09:06:33;20.60;;;9.07;;
34405;SDS011;20658;45.630;8.886;2023-12-28T09:09:06;24.42;;;9.55;;
34405;SDS011;20658;45.630;8.886;2023-12-28T09:11:35;24.73;;;9.23;;
34405;SDS011;20658;45.630;8.886;2023-12-28T09:14:09;24.95;;;10.15;;
34405;SDS011;20658;45.630;8.886;2023-12-28T09:16:42;33.30;;;14.75;;
34405;SDS011;20658;45.630;8.886;2023-12-28T09:19:17;27.92;;;11.75;;
34405;SDS011;20658;45.630;8.886;2023-12-28T09:21:50;26.35;;;10.48;;
34405;SDS011;20658;45.630;8.886;2023-12-28T09:24:24;22.70;;;9.77;;
34405;SDS011;20658;45.630;8.886;2023-12-28T09:26:57;19.92;;;10.10;;
34405;SDS011;20658;45.630;8.886;2023-12-28T09:29:26;24.45;;;10.35;;
34405;SDS011;20658;45.630;8.886;2023-12-28T09:31:59;26.67;;;12.13;;
34405;SDS011;20658;45.630;8.886;2023-12-28T09:34:34;23.30;;;11.57;;
34405;SDS011;20658;45.630;8.886;2023-12-28T09:37:08;29.00;;;11.68;;
34405;SDS011;20658;45.630;8.886;2023-12-28T09:39:41;22.90;;;10.55;;
34405;SDS011;20658;45.630;8.886;2023-12-28T09:42:13;26.25;;;9.27;;
34405;SDS011;20658;45.630;8.886;2023-12-28T09:44:50;26.50;;;9.55;;
34405;SDS011;20658;45.630;8.886;2023-12-28T09:47:24;16.52;;;9.20;;
34405;SDS011;20658;45.630;8.886;2023-12-28T09:49:59;24.33;;;9.52;;
34405;SDS011;20658;45.630;8.886;2023-12-28T09:52:27;20.80;;;8.85;;
34405;SDS011;20658;45.630;8.886;2023-12-28T09:54:56;20.42;;;9.63;;
34405;SDS011;20658;45.630;8.886;2023-12-28T09:57:30;21.77;;;9.90;;
34405;SDS011;20658;45.630;8.886;2023-12-28T10:00:04;16.15;;;8.88;;
34405;SDS011;20658;45.630;8.886;2023-12-28T10:02:39;23.10;;;10.05;;
34405;SDS011;20658;45.630;8.886;2023-12-28T10:05:14;22.20;;;10.90;;
34405;SDS011;20658;45.630;8.886;2023-12-28T10:07:47;21.25;;;9.77;;
34405;SDS011;20658;45.630;8.886;2023-12-28T10:10:18;23.52;;;10.75;;
34405;SDS011;20658;45.630;8.886;2023-12-28T10:12:48;22.00;;;11.00;;
34405;SDS011;20658;45.630;8.886;2023-12-28T10:15:17;19.45;;;9.40;;
34405;SDS011;20658;45.630;8.886;2023-12-28T10:17:51;20.00;;;9.20;;
34405;SDS011;20658;45.630;8.886;2023-12-28T10:20:21;16.27;;;8.85;;
34405;SDS011;20658;45.630;8.886;2023-12-28T10:22:49;19.42;;;10.20;;
34405;SDS011;20658;45.630;8.886;2023-12-28T10:25:18;21.40;;;9.60;;
34405;SDS011;20658;45.630;8.886;2023-12-28T10:27:52;27.92;;;11.52;;
34405;SDS011;20658;45.630;8.886;2023-12-28T10:30:21;23.13;;;12.13;;
34405;SDS011;20658;45.630;8.886;2023-12-28T10:32:54;22.67;;;11.20;;
34405;SDS011;20658;45.630;8.886;2023-12-28T10:35:24;22.13;;;12.93;;
34405;SDS011;20658;45.630;8.886;2023-12-28T10:37:59;25.05;;;12.63;;
34405;SDS011;20658;45.630;8.886;2023-12-28T10:40:35;22.05;;;11.27;;
34405;SDS011;20658;45.630;8.886;2023-12-28T10:43:06;23.80;;;13.05;;
34405;SDS011;20658;45.630;8.886;2023-12-28T10:45:41;26.23;;;14.82;;
34405;SDS011;20658;45.630;8.886;2023-12-28T10:48:20;20.08;;;11.93;;
34405;SDS011;20658;45.630;8.886;2023-12-28T10:51:03;20.13;;;11.48;;
34405;SDS011;20658;45.630;8.886;2023-12-28T10:53:41;24.85;;;10.32;;
34405;SDS011;20658;45.630;8.886;2023-12-28T10:56:25;23.70;;;11.27;;
34405;SDS011;20658;45.630;8.886;2023-12-28T10:59:03;20.20;;;9.73;;
34405;SDS011;20658;45.630;8.886;2023-12-28T11:01:46;19.35;;;9.98;;
34405;SDS011;20658;45.630;8.886;2023-12-28T11:04:23;19.42;;;9.32;;
34405;SDS011;20658;45.630;8.886;2023-12-28T11:07:04;21.75;;;9.60;;
34405;SDS011;20658;45.630;8.886;2023-12-28T11:09:40;18.30;;;10.00;;
34405;SDS011;20658;45.630;8.886;2023-12-28T11:12:15;19.80;;;10.52;;
34405;SDS011;20658;45.630;8.886;2023-12-28T11:14:50;22.60;;;9.82;;
34405;SDS011;20658;45.630;8.886;2023-12-28T11:17:24;21.17;;;10.98;;
34405;SDS011;20658;45.630;8.886;2023-12-28T11:19:58;21.45;;;11.25;;
34405;SDS011;20658;45.630;8.886;2023-12-28T11:22:33;24.77;;;10.73;;
34405;SDS011;20658;45.630;8.886;2023-12-28T11:25:14;22.38;;;10.95;;
34405;SDS011;20658;45.630;8.886;2023-12-28T11:27:49;22.00;;;11.35;;
34405;SDS011;20658;45.630;8.886;2023-12-28T11:30:25;19.77;;;10.25;;
34405;SDS011;20658;45.630;8.886;2023-12-28T11:32:58;18.90;;;11.07;;
34405;SDS011;20658;45.630;8.886;2023-12-28T11:35:36;26.80;;;11.77;;
34405;SDS011;20658;45.630;8.886;2023-12-28T11:38:09;20.77;;;11.00;;
34405;SDS011;20658;45.630;8.886;2023-12-28T11:40:40;24.48;;;12.93;;
34405;SDS011;20658;45.630;8.886;2023-12-28T11:43:17;27.08;;;13.55;;
34405;SDS011;20658;45.630;8.886;2023-12-28T11:45:54;23.88;;;13.10;;
34405;SDS011;20658;45.630;8.886;2023-12-28T11:48:28;29.00;;;12.25;;
34405;SDS011;20658;45.630;8.886;2023-12-28T11:50:57;25.23;;;12.70;;
34405;SDS011;20658;45.630;8.886;2023-12-28T11:53:29;22.63;;;14.15;;
34405;SDS011;20658;45.630;8.886;2023-12-28T11:56:03;28.35;;;17.70;;
34405;SDS011;20658;45.630;8.886;2023-12-28T11:58:40;28.08;;;14.27;;
34405;SDS011;20658;45.630;8.886;2023-12-28T12:01:12;24.33;;;13.15;;
34405;SDS011;20658;45.630;8.886;2023-12-28T12:03:46;21.15;;;12.57;;
34405;SDS011;20658;45.630;8.886;2023-12-28T12:06:21;23.75;;;11.75;;
34405;SDS011;20658;45.630;8.886;2023-12-28T12:08:55;27.70;;;12.23;;
34405;SDS011;20658;45.630;8.886;2023-12-28T12:11:30;28.08;;;12.25;;
34405;SDS011;20658;45.630;8.886;2023-12-28T12:14:05;24.90;;;13.50;;
34405;SDS011;20658;45.630;8.886;2023-12-28T12:16:42;22.65;;;11.88;;
34405;SDS011;20658;45.630;8.886;2023-12-28T12:19:11;32.75;;;13.70;;
34405;SDS011;20658;45.630;8.886;2023-12-28T12:21:40;28.63;;;13.65;;
34405;SDS011;20658;45.630;8.886;2023-12-28T12:24:10;25.30;;;13.10;;
34405;SDS011;20658;45.630;8.886;2023-12-28T12:26:43;23.30;;;12.90;;
34405;SDS011;20658;45.630;8.886;2023-12-28T12:29:18;28.88;;;13.20;;
34405;SDS011;20658;45.630;8.886;2023-12-28T12:31:51;23.98;;;12.52;;
34405;SDS011;20658;45.630;8.886;2023-12-28T12:34:20;23.63;;;12.88;;
34405;SDS011;20658;45.630;8.886;2023-12-28T12:36:53;31.85;;;14.75;;
34405;SDS011;20658;45.630;8.886;2023-12-28T12:39:24;24.58;;;14.65;;
34405;SDS011;20658;45.630;8.886;2023-12-28T12:41:58;29.90;;;14.10;;
34405;SDS011;20658;45.630;8.886;2023-12-28T12:44:31;30.17;;;13.82;;
34405;SDS011;20658;45.630;8.886;2023-12-28T12:47:00;24.27;;;12.90;;
34405;SDS011;20658;45.630;8.886;2023-12-28T12:49:30;26.70;;;13.30;;
34405;SDS011;20658;45.630;8.886;2023-12-28T12:52:00;26.58;;;12.60;;
34405;SDS011;20658;45.630;8.886;2023-12-28T12:54:35;33.22;;;14.60;;
34405;SDS011;20658;45.630;8.886;2023-12-28T12:57:08;33.33;;;18.58;;
34405;SDS011;20658;45.630;8.886;2023-12-28T12:59:38;27.75;;;13.73;;
34405;SDS011;20658;45.630;8.886;2023-12-28T13:02:08;31.17;;;15.88;;
34405;SDS011;20658;45.630;8.886;2023-12-28T13:04:44;27.75;;;15.43;;
34405;SDS011;20658;45.630;8.886;2023-12-28T13:07:17;26.73;;;15.45;;
34405;SDS011;20658;45.630;8.886;2023-12-28T13:09:47;26.73;;;14.05;;
34405;SDS011;20658;45.630;8.886;2023-12-28T13:12:16;26.25;;;13.90;;
34405;SDS011;20658;45.630;8.886;2023-12-28T13:14:49;26.00;;;14.73;;
34405;SDS011;20658;45.630;8.886;2023-12-28T13:17:23;24.17;;;14.15;;
34405;SDS011;20658;45.630;8.886;2023-12-28T13:19:56;25.88;;;14.13;;
34405;SDS011;20658;45.630;8.886;2023-12-28T13:22:30;34.63;;;15.32;;
34405;SDS011;20658;45.630;8.886;2023-12-28T13:25:05;26.02;;;14.57;;
34405;SDS011;20658;45.630;8.886;2023-12-28T13:27:39;23.85;;;13.82;;
34405;SDS011;20658;45.630;8.886;2023-12-28T13:30:08;22.42;;;12.57;;
34405;SDS011;20658;45.630;8.886;2023-12-28T13:32:38;31.58;;;13.25;;
34405;SDS011;20658;45.630;8.886;2023-12-28T13:35:11;46.60;;;14.88;;
34405;SDS011;20658;45.630;8.886;2023-12-28T13:37:45;40.15;;;13.80;;
34405;SDS011;20658;45.630;8.886;2023-12-28T13:40:15;26.67;;;13.13;;
34405;SDS011;20658;45.630;8.886;2023-12-28T13:42:48;30.98;;;15.18;;
34405;SDS011;20658;45.630;8.886;2023-12-28T13:45:22;29.58;;;15.93;;
34405;SDS011;20658;45.630;8.886;2023-12-28T13:47:51;28.58;;;15.63;;
34405;SDS011;20658;45.630;8.886;2023-12-28T13:50:19;23.60;;;14.57;;
34405;SDS011;20658;45.630;8.886;2023-12-28T13:52:48;30.17;;;15.40;;
34405;SDS011;20658;45.630;8.886;2023-12-28T13:55:23;27.80;;;16.05;;
34405;SDS011;20658;45.630;8.886;2023-12-28T13:57:56;26.95;;;15.23;;
34405;SDS011;20658;45.630;8.886;2023-12-28T14:00:29;26.48;;;15.77;;
34405;SDS011;20658;45.630;8.886;2023-12-28T14:03:03;25.30;;;15.55;;
34405;SDS011;20658;45.630;8.886;2023-12-28T14:05:37;31.02;;;14.68;;
34405;SDS011;20658;45.630;8.886;2023-12-28T14:08:11;26.70;;;15.40;;
34405;SDS011;20658;45.630;8.886;2023-12-28T14:10:45;28.38;;;14.43;;
34405;SDS011;20658;45.630;8.886;2023-12-28T14:13:14;30.23;;;14.18;;
34405;SDS011;20658;45.630;8.886;2023-12-28T14:15:47;24.20;;;13.65;;
34405;SDS011;20658;45.630;8.886;2023-12-28T14:18:21;33.40;;;14.90;;
34405;SDS011;20658;45.630;8.886;2023-12-28T14:20:54;26.13;;;15.30;;
34405;SDS011;20658;45.630;8.886;2023-12-28T14:23:28;32.75;;;18.83;;
34405;SDS011;20658;45.630;8.886;2023-12-28T14:25:59;33.08;;;16.38;;
34405;SDS011;20658;45.630;8.886;2023-12-28T14:28:33;48.75;;;18.77;;
34405;SDS011;20658;45.630;8.886;2023-12-28T14:31:08;35.08;;;15.60;;
34405;SDS011;20658;45.630;8.886;2023-12-28T14:33:43;27.98;;;15.88;;
34405;SDS011;20658;45.630;8.886;2023-12-28T14:36:19;29.90;;;16.17;;
34405;SDS011;20658;45.630;8.886;2023-12-28T14:38:55;31.92;;;16.08;;
34405;SDS011;20658;45.630;8.886;2023-12-28T14:41:30;33.03;;;16.67;;
34405;SDS011;20658;45.630;8.886;2023-12-28T14:44:03;30.38;;;19.73;;
34405;SDS011;20658;45.630;8.886;2023-12-28T14:46:37;39.95;;;25.13;;
34405;SDS011;20658;45.630;8.886;2023-12-28T14:49:10;37.20;;;24.17;;
34405;SDS011;20658;45.630;8.886;2023-12-28T14:51:44;28.80;;;16.10;;
34405;SDS011;20658;45.630;8.886;2023-12-28T14:54:17;29.17;;;15.93;;
34405;SDS011;20658;45.630;8.886;2023-12-28T14:56:52;32.15;;;14.77;;
34405;SDS011;20658;45.630;8.886;2023-12-28T14:59:26;24.27;;;14.38;;